Time;durP1;ratioP1;P1;durP2;ratioP2;P2;SDS_P1;SDS_P2;PMS_P1;PMS_P2;Temp;Humidity;BMP_temperature;BMP_pressure;BME280_temperature;BME280_humidity;BME280_pressure;Samples;Min_cycle;Max_cycle;Signal;HPM_P1;HPM_P2
2022/12/19 00:00:04;;;;;;;;;;;-4.20;99.90;;;;;;5046508;28;19952;-68
2022/12/19 00:02:32;;;;;;;;;;;-4.10;99.90;;;;;;5064142;28;19952;-68
2022/12/19 00:04:58;;;;;;;;;;;-4.20;99.90;;;;;;5066416;28;19981;-68
2022/12/19 00:07:26;;;;;;;;;;;-4.20;99.90;;;;;;5065271;28;19988;-68
2022/12/19 00:09:54;;;;;;;;;;;-4.10;99.90;;;;;;5066325;28;19921;-68
2022/12/19 00:12:20;;;;;;;;;;;-4.20;99.90;;;;;;5066481;28;19980;-68
2022/12/19 00:14:47;;;;;;;;;;;-4.10;99.90;;;;;;5066027;28;19952;-67
2022/12/19 00:17:14;;;;;;;;;;;-4.10;99.90;;;;;;5065320;28;19920;-67
2022/12/19 00:19:40;;;;;;;;;;;-4.10;99.90;;;;;;5065728;28;19979;-68
2022/12/19 00:22:07;;;;;;;;;;;-4.10;99.90;;;;;;5066350;28;20153;-67
2022/12/19 00:24:34;;;;;;;;;;;-4.10;99.90;;;;;;5065930;28;19956;-67
2022/12/19 00:27:01;;;;;;;;;;;-4.10;99.90;;;;;;5065040;28;19972;-68
2022/12/19 00:29:28;;;;;;;;;;;-4.10;99.90;;;;;;5065973;28;19984;-67
2022/12/19 00:31:55;;;;;;;;;;;-4.10;99.90;;;;;;5067023;28;20177;-68
2022/12/19 00:34:22;;;;;;;;;;;-4.10;99.90;;;;;;5065630;28;19959;-68
2022/12/19 00:36:48;;;;;;;;;;;-4.10;99.90;;;;;;5065145;28;19929;-67
2022/12/19 00:39:15;;;;;;;;;;;-4.10;99.90;;;;;;5065481;28;19925;-68
2022/12/19 00:41:42;;;;;;;;;;;-4.10;99.90;;;;;;5065220;28;19927;-67
2022/12/19 00:44:12;;;;;;;;;;;-4.10;99.90;;;;;;5065566;28;19921;-67
2022/12/19 00:46:39;;;;;;;;;;;-4.10;99.90;;;;;;5064542;28;19962;-68
2022/12/19 00:49:06;;;;;;;;;;;-4.00;99.90;;;;;;5062121;28;19967;-70
2022/12/19 00:51:33;;;;;;;;;;;-4.00;99.90;;;;;;5065324;28;19921;-70
2022/12/19 00:54:01;;;;;;;;;;;-4.00;99.90;;;;;;5065091;28;19980;-68
2022/12/19 00:56:28;;;;;;;;;;;-4.10;99.90;;;;;;5064244;28;19959;-69
2022/12/19 00:58:57;;;;;;;;;;;-4.00;99.90;;;;;;5059046;28;19921;-68
2022/12/19 01:01:27;;;;;;;;;;;-3.90;99.90;;;;;;5060153;28;19921;-67
2022/12/19 01:03:54;;;;;;;;;;;-3.90;99.90;;;;;;5056611;28;19940;-67
2022/12/19 01:06:21;;;;;;;;;;;-3.90;99.90;;;;;;5064614;28;19921;-67
2022/12/19 01:08:48;;;;;;;;;;;-4.00;99.90;;;;;;5064916;28;19928;-69
2022/12/19 01:11:15;;;;;;;;;;;-4.00;99.90;;;;;;5056695;28;19968;-68
2022/12/19 01:13:40;;;;;;;;;;;-4.00;99.90;;;;;;5045392;28;19921;-68
2022/12/19 01:16:09;;;;;;;;;;;-4.00;99.90;;;;;;5044253;28;19917;-67
2022/12/19 01:18:37;;;;;;;;;;;-4.00;99.90;;;;;;5044713;28;19967;-67
2022/12/19 01:21:05;;;;;;;;;;;-4.00;99.90;;;;;;5048379;28;19959;-68
2022/12/19 01:23:32;;;;;;;;;;;-3.90;99.90;;;;;;5065034;28;19952;-68
2022/12/19 01:25:58;;;;;;;;;;;-3.90;99.90;;;;;;5064563;28;20117;-68
2022/12/19 01:28:25;;;;;;;;;;;-3.90;99.90;;;;;;5064228;28;19988;-68
2022/12/19 01:30:52;;;;;;;;;;;-3.90;99.90;;;;;;5064557;28;19927;-68
2022/12/19 01:33:19;;;;;;;;;;;-3.90;99.90;;;;;;5064796;28;19956;-68
2022/12/19 01:35:48;;;;;;;;;;;-3.90;99.90;;;;;;5064449;28;19963;-68
2022/12/19 01:38:15;;;;;;;;;;;-3.80;99.90;;;;;;5064320;28;19921;-68
2022/12/19 01:40:48;;;;;;;;;;;-3.90;99.90;;;;;;5064524;28;19927;-68
2022/12/19 01:43:16;;;;;;;;;;;-3.80;99.90;;;;;;5064361;28;19956;-69
2022/12/19 01:45:43;;;;;;;;;;;-3.90;99.90;;;;;;5053656;28;19929;-68
2022/12/19 01:48:17;;;;;;;;;;;-3.90;99.90;;;;;;5063992;28;19927;-68
2022/12/19 01:50:50;;;;;;;;;;;-3.90;99.90;;;;;;5064177;28;20491;-68
2022/12/19 01:53:17;;;;;;;;;;;-3.90;99.90;;;;;;5063861;28;20235;-68
2022/12/19 01:55:44;;;;;;;;;;;-3.90;99.90;;;;;;5063538;28;19943;-68
2022/12/19 01:58:11;;;;;;;;;;;-3.80;99.90;;;;;;5050547;28;19963;-68
2022/12/19 02:00:38;;;;;;;;;;;-3.90;99.90;;;;;;5044378;28;19988;-67
2022/12/19 02:03:08;;;;;;;;;;;-3.90;99.90;;;;;;5044397;28;19960;-68
2022/12/19 02:05:35;;;;;;;;;;;-3.90;99.90;;;;;;5047634;28;19920;-71
2022/12/19 02:08:03;;;;;;;;;;;-3.90;99.90;;;;;;5063642;28;19952;-68
2022/12/19 02:10:30;;;;;;;;;;;-3.90;99.90;;;;;;5063994;28;19927;-67
2022/12/19 02:12:57;;;;;;;;;;;-3.90;99.90;;;;;;5063932;28;19920;-68
2022/12/19 02:15:24;;;;;;;;;;;-3.80;99.90;;;;;;5063868;28;19943;-69
2022/12/19 02:17:56;;;;;;;;;;;-3.80;99.90;;;;;;5063309;28;20108;-68
2022/12/19 02:20:41;;;;;;;;;;;-3.80;99.90;;;;;;5056887;28;19980;-68
2022/12/19 02:23:25;;;;;;;;;;;-3.80;99.90;;;;;;5063393;28;19921;-69
2022/12/19 02:26:00;;;;;;;;;;;-3.80;99.90;;;;;;5063472;28;20259;-68
2022/12/19 02:28:39;;;;;;;;;;;-3.80;99.90;;;;;;5063694;28;19953;-68
2022/12/19 02:31:09;;;;;;;;;;;-3.80;99.90;;;;;;5064067;28;19996;-68
2022/12/19 02:33:39;;;;;;;;;;;-3.80;99.90;;;;;;5063990;28;19920;-68
2022/12/19 02:36:07;;;;;;;;;;;-3.80;99.90;;;;;;5063140;28;20399;-70
2022/12/19 02:38:38;;;;;;;;;;;-3.70;99.90;;;;;;5063559;28;19927;-69
2022/12/19 02:41:07;;;;;;;;;;;-3.70;99.90;;;;;;5063509;28;19920;-68
2022/12/19 02:43:39;;;;;;;;;;;-3.70;99.90;;;;;;5063887;28;20270;-68
2022/12/19 02:46:06;;;;;;;;;;;-3.70;99.90;;;;;;5050442;28;19921;-73
2022/12/19 02:48:34;;;;;;;;;;;-3.60;99.90;;;;;;5043458;28;19928;-69
2022/12/19 02:51:01;;;;;;;;;;;-3.60;99.90;;;;;;5043743;28;19921;-68
2022/12/19 02:53:27;;;;;;;;;;;-3.60;99.90;;;;;;5063822;28;19925;-68
2022/12/19 02:56:01;;;;;;;;;;;-3.60;99.90;;;;;;5062847;28;19995;-68
2022/12/19 02:58:33;;;;;;;;;;;-3.70;99.90;;;;;;5063329;28;19920;-68
2022/12/19 03:01:07;;;;;;;;;;;-3.60;99.90;;;;;;5063806;28;19928;-68
2022/12/19 03:03:41;;;;;;;;;;;-3.70;99.90;;;;;;5064594;28;19971;-68
2022/12/19 03:06:12;;;;;;;;;;;-3.60;99.90;;;;;;5065115;28;19948;-68
2022/12/19 03:08:45;;;;;;;;;;;-3.60;99.90;;;;;;5065890;28;19992;-68
2022/12/19 03:11:13;;;;;;;;;;;-3.60;99.90;;;;;;5067595;28;19927;-68
2022/12/19 03:13:42;;;;;;;;;;;-3.50;99.90;;;;;;5067263;28;19929;-68
2022/12/19 03:16:10;;;;;;;;;;;-3.50;99.90;;;;;;5066553;28;20243;-69
2022/12/19 03:18:38;;;;;;;;;;;-3.50;99.90;;;;;;5067151;28;19921;-68
2022/12/19 03:21:08;;;;;;;;;;;-3.50;99.90;;;;;;5067331;28;19983;-68
2022/12/19 03:23:35;;;;;;;;;;;-3.50;99.90;;;;;;5067337;28;19987;-68
2022/12/19 03:26:04;;;;;;;;;;;-3.50;99.90;;;;;;5066813;28;19956;-68
2022/12/19 03:28:38;;;;;;;;;;;-3.50;99.90;;;;;;5066711;28;19928;-68
2022/12/19 03:31:06;;;;;;;;;;;-3.60;99.90;;;;;;5067005;28;19958;-69
2022/12/19 03:33:33;;;;;;;;;;;-3.60;99.90;;;;;;5067163;28;20023;-68
2022/12/19 03:36:04;;;;;;;;;;;-3.50;99.90;;;;;;5066237;28;19979;-68
2022/12/19 03:38:31;;;;;;;;;;;-3.50;99.90;;;;;;5066764;28;20000;-68
2022/12/19 03:40:58;;;;;;;;;;;-3.40;99.90;;;;;;5066598;28;20342;-68
2022/12/19 03:43:25;;;;;;;;;;;-3.50;99.90;;;;;;5066487;28;19979;-68
2022/12/19 03:45:55;;;;;;;;;;;-3.50;99.90;;;;;;5060166;28;20112;-68
2022/12/19 03:48:24;;;;;;;;;;;-3.50;99.90;;;;;;5065991;28;19995;-68
2022/12/19 03:50:55;;;;;;;;;;;-3.50;99.90;;;;;;5066783;28;19948;-68
2022/12/19 03:53:27;;;;;;;;;;;-3.40;99.90;;;;;;5062288;28;19949;-68
2022/12/19 03:55:57;;;;;;;;;;;-3.50;99.90;;;;;;5053817;28;19959;-68
2022/12/19 03:58:27;;;;;;;;;;;-3.50;99.90;;;;;;5062996;28;19988;-68
2022/12/19 04:00:54;;;;;;;;;;;-3.40;99.90;;;;;;5046197;28;20000;-68
2022/12/19 04:03:21;;;;;;;;;;;-3.40;99.90;;;;;;5049065;28;19992;-68
2022/12/19 04:05:49;;;;;;;;;;;-3.40;99.90;;;;;;5065988;28;19928;-68
2022/12/19 04:08:16;;;;;;;;;;;-3.40;99.90;;;;;;5065905;28;19920;-68
2022/12/19 04:10:47;;;;;;;;;;;-3.40;99.90;;;;;;5066188;28;19974;-69
2022/12/19 04:13:16;;;;;;;;;;;-3.40;99.90;;;;;;5066472;28;19948;-68
2022/12/19 04:15:51;;;;;;;;;;;-3.40;99.90;;;;;;5066095;28;19920;-68
2022/12/19 04:18:19;;;;;;;;;;;-3.40;99.90;;;;;;5064479;28;19920;-68
2022/12/19 04:20:47;;;;;;;;;;;-3.40;99.90;;;;;;5066284;28;19984;-68
2022/12/19 04:23:16;;;;;;;;;;;-3.30;99.90;;;;;;5066383;28;19968;-68
2022/12/19 04:25:46;;;;;;;;;;;-3.30;99.90;;;;;;5065765;28;19921;-69
2022/12/19 04:28:14;;;;;;;;;;;-3.30;99.90;;;;;;5063003;28;20116;-68
2022/12/19 04:30:42;;;;;;;;;;;-3.40;99.90;;;;;;5065922;28;20004;-69
2022/12/19 04:33:08;;;;;;;;;;;-3.30;99.90;;;;;;5066066;28;19984;-68
2022/12/19 04:35:35;;;;;;;;;;;-3.30;99.90;;;;;;5065851;28;20112;-68
2022/12/19 04:38:02;;;;;;;;;;;-3.30;99.90;;;;;;5065285;28;20205;-68
2022/12/19 04:40:29;;;;;;;;;;;-3.30;99.90;;;;;;5065573;28;19940;-68
2022/12/19 04:42:57;;;;;;;;;;;-3.20;99.90;;;;;;5065601;28;19927;-68
2022/12/19 04:45:23;;;;;;;;;;;-3.30;99.90;;;;;;5065527;28;19984;-68
2022/12/19 04:47:50;;;;;;;;;;;-3.30;99.90;;;;;;5064916;28;20059;-68
2022/12/19 04:50:16;;;;;;;;;;;-3.30;99.90;;;;;;5065428;28;20251;-68
2022/12/19 04:52:43;;;;;;;;;;;-3.30;99.90;;;;;;5065347;28;19959;-67
2022/12/19 04:55:10;;;;;;;;;;;-3.20;99.90;;;;;;5065630;28;19987;-68
2022/12/19 04:57:36;;;;;;;;;;;-3.20;99.90;;;;;;5061019;28;19984;-68
2022/12/19 05:00:07;;;;;;;;;;;-3.20;99.90;;;;;;5065075;28;20120;-68
2022/12/19 05:02:33;;;;;;;;;;;-3.20;99.90;;;;;;5065408;28;19921;-68
2022/12/19 05:05:00;;;;;;;;;;;-3.20;99.90;;;;;;5065344;28;19988;-69
2022/12/19 05:07:27;;;;;;;;;;;-3.20;99.90;;;;;;5064713;28;19963;-68
2022/12/19 05:09:53;;;;;;;;;;;-3.10;99.90;;;;;;5065242;28;19964;-68
2022/12/19 05:12:20;;;;;;;;;;;-3.10;99.90;;;;;;5065158;28;20153;-68
2022/12/19 05:14:47;;;;;;;;;;;-3.10;99.90;;;;;;5064831;28;19984;-68
2022/12/19 05:17:14;;;;;;;;;;;-3.10;99.90;;;;;;5064561;28;19984;-68
2022/12/19 05:19:41;;;;;;;;;;;-3.10;99.90;;;;;;5064737;28;19921;-68
2022/12/19 05:22:08;;;;;;;;;;;-3.10;99.90;;;;;;5064826;28;20254;-68
2022/12/19 05:24:34;;;;;;;;;;;-3.00;99.90;;;;;;5064649;28;19960;-68
2022/12/19 05:27:01;;;;;;;;;;;-3.00;99.90;;;;;;5064159;28;19953;-68
2022/12/19 05:29:28;;;;;;;;;;;-3.00;99.90;;;;;;5064437;28;19956;-68
2022/12/19 05:31:54;;;;;;;;;;;-3.10;99.90;;;;;;5064933;28;19952;-72
2022/12/19 05:34:23;;;;;;;;;;;-3.00;99.90;;;;;;5064492;28;20268;-69
2022/12/19 05:36:50;;;;;;;;;;;-3.00;99.90;;;;;;5063949;28;19920;-68
2022/12/19 05:39:17;;;;;;;;;;;-2.90;99.90;;;;;;5064527;28;19921;-68
2022/12/19 05:41:43;;;;;;;;;;;-2.90;99.90;;;;;;5064342;28;19984;-69
2022/12/19 05:44:10;;;;;;;;;;;-2.90;99.90;;;;;;5064512;28;19984;-68
2022/12/19 05:46:37;;;;;;;;;;;-2.80;99.90;;;;;;5063726;28;19979;-68
2022/12/19 05:49:03;;;;;;;;;;;-2.80;99.90;;;;;;5063993;28;19987;-69
2022/12/19 05:51:31;;;;;;;;;;;-2.80;99.90;;;;;;5064299;28;19921;-69
2022/12/19 05:53:59;;;;;;;;;;;-2.80;99.90;;;;;;5064517;28;19995;-68
2022/12/19 05:56:26;;;;;;;;;;;-2.80;99.90;;;;;;5063531;28;20160;-68
2022/12/19 05:58:53;;;;;;;;;;;-2.80;99.90;;;;;;5044732;28;20224;-68
2022/12/19 06:01:21;;;;;;;;;;;-2.80;99.90;;;;;;5043922;28;19944;-69
2022/12/19 06:03:48;;;;;;;;;;;-2.80;99.90;;;;;;5060008;28;19979;-68
2022/12/19 06:06:15;;;;;;;;;;;-2.80;99.90;;;;;;5063262;28;19921;-68
2022/12/19 06:08:43;;;;;;;;;;;-2.70;99.90;;;;;;5063413;28;20204;-68
2022/12/19 06:11:11;;;;;;;;;;;-2.70;99.90;;;;;;5063712;28;19983;-67
2022/12/19 06:13:37;;;;;;;;;;;-2.70;99.90;;;;;;5063998;28;19984;-67
2022/12/19 06:16:05;;;;;;;;;;;-2.60;99.90;;;;;;5063258;28;19980;-68
2022/12/19 06:18:32;;;;;;;;;;;-2.60;99.90;;;;;;5063464;28;19956;-68
2022/12/19 06:20:59;;;;;;;;;;;-2.60;99.90;;;;;;5063891;28;19952;-68
2022/12/19 06:23:26;;;;;;;;;;;-2.60;99.90;;;;;;5063818;28;20161;-73
2022/12/19 06:25:55;;;;;;;;;;;-2.60;99.90;;;;;;5063148;28;19967;-67
2022/12/19 06:28:22;;;;;;;;;;;-2.60;99.90;;;;;;5063157;28;19988;-67
2022/12/19 06:30:48;;;;;;;;;;;-2.60;99.90;;;;;;5063822;28;19952;-68
2022/12/19 06:33:15;;;;;;;;;;;-2.50;99.90;;;;;;5063845;28;20125;-69
2022/12/19 06:35:41;;;;;;;;;;;-2.60;99.90;;;;;;5063403;28;19921;-72
2022/12/19 06:38:08;;;;;;;;;;;-2.50;99.90;;;;;;5063307;28;19954;-69
2022/12/19 06:43:20;;;;;;;;;;;-2.40;99.90;;;;;;5063599;28;19962;-70
2022/12/19 06:45:47;;;;;;;;;;;-2.40;99.90;;;;;;5063335;28;20001;-69
2022/12/19 06:48:14;;;;;;;;;;;-2.40;99.90;;;;;;5062872;28;20246;-68
2022/12/19 06:50:40;;;;;;;;;;;-2.40;99.90;;;;;;5063594;28;19963;-69
2022/12/19 06:53:07;;;;;;;;;;;-2.40;99.90;;;;;;5063688;28;19952;-69
2022/12/19 06:55:35;;;;;;;;;;;-2.40;99.90;;;;;;5063232;28;20008;-69
2022/12/19 06:58:01;;;;;;;;;;;-2.40;99.90;;;;;;5060316;28;19921;-69
2022/12/19 07:00:36;;;;;;;;;;;-2.40;99.90;;;;;;5053079;28;19944;-69
2022/12/19 07:03:04;;;;;;;;;;;-2.40;99.90;;;;;;5061553;28;19921;-69
2022/12/19 07:05:30;;;;;;;;;;;-2.40;99.90;;;;;;5063324;28;19921;-69
2022/12/19 07:07:57;;;;;;;;;;;-2.40;99.90;;;;;;5062740;28;20152;-68
2022/12/19 07:10:23;;;;;;;;;;;-2.30;99.90;;;;;;5063359;28;19949;-68
2022/12/19 07:12:50;;;;;;;;;;;-2.40;99.90;;;;;;5058370;28;19921;-69
2022/12/19 07:15:17;;;;;;;;;;;-2.40;99.90;;;;;;5063082;28;20263;-69
2022/12/19 07:17:45;;;;;;;;;;;-2.30;99.90;;;;;;5062730;28;19980;-69
2022/12/19 07:20:12;;;;;;;;;;;-2.30;99.90;;;;;;5062923;28;19928;-69
2022/12/19 07:22:39;;;;;;;;;;;-2.30;99.90;;;;;;5063006;28;19984;-70
2022/12/19 07:25:06;;;;;;;;;;;-2.20;99.90;;;;;;5062463;28;19927;-71
2022/12/19 07:27:33;;;;;;;;;;;-2.30;99.90;;;;;;5062088;28;20356;-71
2022/12/19 07:30:00;;;;;;;;;;;-2.20;99.90;;;;;;5062416;28;19987;-71
2022/12/19 07:32:26;;;;;;;;;;;-2.20;99.90;;;;;;5058873;28;19993;-70
2022/12/19 07:34:54;;;;;;;;;;;-2.20;99.90;;;;;;5062804;28;19956;-71
2022/12/19 07:37:27;;;;;;;;;;;-2.20;99.90;;;;;;5058824;28;20007;-70
2022/12/19 07:39:53;;;;;;;;;;;-2.20;99.90;;;;;;5062900;28;19952;-71
2022/12/19 07:42:20;;;;;;;;;;;-2.20;99.90;;;;;;5062680;28;19920;-71
2022/12/19 07:44:47;;;;;;;;;;;-2.10;99.90;;;;;;5062389;28;19952;-71
2022/12/19 07:47:14;;;;;;;;;;;-2.10;99.90;;;;;;5061023;28;19992;-71
2022/12/19 07:49:41;;;;;;;;;;;-2.10;99.90;;;;;;5044596;28;19921;-71
2022/12/19 07:52:09;;;;;;;;;;;-2.10;99.90;;;;;;5059460;28;19952;-71
2022/12/19 07:54:36;;;;;;;;;;;-2.10;99.90;;;;;;5065755;28;19927;-70
2022/12/19 07:57:02;;;;;;;;;;;-2.00;99.90;;;;;;5065396;28;19952;-71
2022/12/19 07:59:29;;;;;;;;;;;-2.00;99.90;;;;;;5065989;28;20105;-71
2022/12/19 08:01:55;;;;;;;;;;;-1.90;99.90;;;;;;5065814;28;20116;-71
2022/12/19 08:04:22;;;;;;;;;;;-1.90;99.90;;;;;;5066109;28;19959;-71
2022/12/19 08:06:49;;;;;;;;;;;-1.90;99.90;;;;;;5065099;28;19920;-71
2022/12/19 08:09:17;;;;;;;;;;;-1.90;99.90;;;;;;5065641;28;19992;-71
2022/12/19 08:11:43;;;;;;;;;;;-1.90;99.90;;;;;;5065531;28;19936;-72
2022/12/19 08:14:10;;;;;;;;;;;-1.80;99.90;;;;;;5065503;28;19956;-71
2022/12/19 08:16:37;;;;;;;;;;;-1.80;99.90;;;;;;5064539;28;19963;-71
2022/12/19 08:19:03;;;;;;;;;;;-1.80;99.90;;;;;;5065322;28;19980;-71
2022/12/19 08:21:30;;;;;;;;;;;-1.80;99.90;;;;;;5065836;28;20167;-72
2022/12/19 08:23:56;;;;;;;;;;;-1.80;99.90;;;;;;5062767;28;19956;-71
2022/12/19 08:26:25;;;;;;;;;;;-1.80;99.90;;;;;;5055026;28;19980;-71
2022/12/19 08:28:52;;;;;;;;;;;-1.70;99.90;;;;;;5064977;28;19943;-71
2022/12/19 08:31:19;;;;;;;;;;;-1.70;99.90;;;;;;5065495;28;19920;-70
2022/12/19 08:33:46;;;;;;;;;;;-1.60;99.90;;;;;;5059286;28;19921;-71
2022/12/19 08:36:13;;;;;;;;;;;-1.60;99.90;;;;;;5061288;28;19959;-71
2022/12/19 08:38:40;;;;;;;;;;;-1.50;99.90;;;;;;5065455;28;19921;-70
2022/12/19 08:41:07;;;;;;;;;;;-1.50;99.90;;;;;;5065311;28;19920;-69
2022/12/19 08:43:35;;;;;;;;;;;-1.40;99.90;;;;;;5063264;28;19920;-70
2022/12/19 08:46:02;;;;;;;;;;;-1.50;99.90;;;;;;5057136;28;19936;-71
2022/12/19 08:48:28;;;;;;;;;;;-1.50;99.90;;;;;;5064870;28;20116;-71
2022/12/19 08:50:56;;;;;;;;;;;-1.40;99.90;;;;;;5064987;28;19921;-71
2022/12/19 08:53:24;;;;;;;;;;;-1.40;99.90;;;;;;5064799;28;19924;-69
2022/12/19 08:55:54;;;;;;;;;;;-1.40;99.90;;;;;;5063388;28;19956;-69
2022/12/19 08:58:20;;;;;;;;;;;-1.30;99.90;;;;;;5055832;28;19958;-69
2022/12/19 09:00:48;;;;;;;;;;;-1.30;99.90;;;;;;5059243;28;19991;-69
2022/12/19 09:03:15;;;;;;;;;;;-1.30;99.90;;;;;;5064192;28;19979;-69
2022/12/19 09:05:42;;;;;;;;;;;-1.20;99.90;;;;;;5064215;28;19963;-69
2022/12/19 09:08:08;;;;;;;;;;;-1.20;99.90;;;;;;5057775;28;19980;-69
2022/12/19 09:10:36;;;;;;;;;;;-1.10;99.90;;;;;;5049660;28;19964;-69
2022/12/19 09:13:02;;;;;;;;;;;-1.10;99.90;;;;;;5058713;28;19980;-69
2022/12/19 09:15:30;;;;;;;;;;;-1.10;99.90;;;;;;5062112;28;19936;-69
2022/12/19 09:17:58;;;;;;;;;;;-1.10;99.90;;;;;;5043650;28;19928;-69
2022/12/19 09:20:24;;;;;;;;;;;-1.00;99.90;;;;;;5061578;28;19991;-69
2022/12/19 09:22:51;;;;;;;;;;;-1.00;99.90;;;;;;5064376;28;19991;-69
2022/12/19 09:25:17;;;;;;;;;;;-0.90;99.90;;;;;;5056735;28;19988;-68
2022/12/19 09:27:44;;;;;;;;;;;-0.90;99.90;;;;;;5063628;28;19952;-68
2022/12/19 09:30:12;;;;;;;;;;;-0.80;99.90;;;;;;5063717;28;20212;-69
2022/12/19 09:32:39;;;;;;;;;;;-0.80;99.90;;;;;;5064423;28;19966;-68
2022/12/19 09:35:07;;;;;;;;;;;-0.70;99.90;;;;;;5064400;28;20292;-68
2022/12/19 09:37:34;;;;;;;;;;;-0.70;99.90;;;;;;5063167;28;19921;-68
2022/12/19 09:40:01;;;;;;;;;;;-0.60;99.90;;;;;;5054336;28;19927;-68
2022/12/19 09:42:45;;;;;;;;;;;-0.50;99.90;;;;;;5064115;28;19988;-68
2022/12/19 09:45:19;;;;;;;;;;;-0.50;99.90;;;;;;5048555;28;19920;-69
2022/12/19 09:47:47;;;;;;;;;;;-0.40;99.90;;;;;;5051333;28;19921;-70
2022/12/19 09:50:22;;;;;;;;;;;-0.40;99.90;;;;;;5049920;28;19921;-69
2022/12/19 09:52:53;;;;;;;;;;;-0.40;99.90;;;;;;5063528;28;19992;-67
2022/12/19 09:55:22;;;;;;;;;;;-0.40;99.90;;;;;;5063472;28;19921;-67
2022/12/19 09:57:51;;;;;;;;;;;-0.30;99.90;;;;;;5063200;28;19928;-67
2022/12/19 10:00:19;;;;;;;;;;;-0.30;99.90;;;;;;5063443;28;19991;-67
2022/12/19 10:02:48;;;;;;;;;;;-0.20;99.90;;;;;;5060543;28;19928;-67
2022/12/19 10:05:17;;;;;;;;;;;-0.10;99.90;;;;;;5074285;28;19921;-68
2022/12/19 10:07:45;;;;;;;;;;;-0.10;99.90;;;;;;5066765;28;19920;-67
2022/12/19 10:10:15;;;;;;;;;;;-0.10;99.90;;;;;;5063568;28;19955;-69
2022/12/19 10:12:47;;;;;;;;;;;0.00;99.90;;;;;;5063143;28;19927;-69
2022/12/19 10:15:19;;;;;;;;;;;0.00;99.90;;;;;;5061965;28;20254;-69
2022/12/19 10:17:57;;;;;;;;;;;0.10;99.90;;;;;;5062426;28;19928;-68
2022/12/19 10:20:27;;;;;;;;;;;0.20;99.90;;;;;;5062868;28;19921;-70
2022/12/19 10:23:01;;;;;;;;;;;0.20;99.90;;;;;;5062922;28;20000;-69
2022/12/19 10:25:30;;;;;;;;;;;0.20;99.90;;;;;;5061886;28;19984;-68
2022/12/19 10:27:59;;;;;;;;;;;0.30;99.90;;;;;;5062670;28;19987;-69
2022/12/19 10:30:25;;;;;;;;;;;0.30;99.90;;;;;;5054497;28;20161;-69
2022/12/19 10:32:57;;;;;;;;;;;0.40;99.90;;;;;;5063399;28;20148;-69
2022/12/19 10:35:25;;;;;;;;;;;0.40;99.90;;;;;;5063140;28;19944;-69
2022/12/19 10:37:55;;;;;;;;;;;0.40;99.90;;;;;;5062615;28;19920;-68
2022/12/19 10:40:26;;;;;;;;;;;0.40;99.90;;;;;;5063027;28;19927;-69
2022/12/19 10:42:55;;;;;;;;;;;0.40;99.90;;;;;;5063222;28;19952;-69
2022/12/19 10:45:22;;;;;;;;;;;0.40;99.90;;;;;;5062567;28;20220;-69
2022/12/19 10:47:50;;;;;;;;;;;0.40;99.90;;;;;;5054006;28;20083;-69
2022/12/19 10:50:21;;;;;;;;;;;0.40;99.90;;;;;;5062608;28;20266;-69
2022/12/19 10:52:51;;;;;;;;;;;0.40;99.90;;;;;;5062668;28;19927;-68
2022/12/19 10:55:47;;;;;;;;;;;0.50;99.90;;;;;;5063152;28;19921;-68
2022/12/19 10:58:20;;;;;;;;;;;0.60;99.90;;;;;;5001093;28;19922;-69
2022/12/19 11:00:55;;;;;;;;;;;0.60;99.90;;;;;;5050227;28;19952;-68
2022/12/19 11:03:22;;;;;;;;;;;0.60;99.90;;;;;;5063243;28;19928;-68
2022/12/19 11:05:50;;;;;;;;;;;0.70;99.90;;;;;;5065687;28;19983;-69
2022/12/19 11:08:18;;;;;;;;;;;0.80;99.90;;;;;;5062623;28;19921;-68
2022/12/19 11:10:46;;;;;;;;;;;0.80;99.90;;;;;;5062949;28;19974;-69
2022/12/19 11:13:20;;;;;;;;;;;0.90;99.90;;;;;;5063158;28;19984;-68
2022/12/19 11:15:48;;;;;;;;;;;1.00;99.90;;;;;;5062561;28;19921;-68
2022/12/19 11:18:15;;;;;;;;;;;1.10;99.90;;;;;;5061582;28;19922;-68
2022/12/19 11:20:53;;;;;;;;;;;1.20;99.90;;;;;;5062060;28;19963;-68
2022/12/19 11:23:19;;;;;;;;;;;1.20;99.90;;;;;;5062888;28;19921;-68
2022/12/19 11:25:52;;;;;;;;;;;1.30;99.90;;;;;;5061925;28;19983;-69
2022/12/19 11:28:22;;;;;;;;;;;1.40;99.90;;;;;;5066187;28;19980;-68
2022/12/19 11:30:55;;;;;;;;;;;1.40;99.90;;;;;;5066524;28;19920;-68
2022/12/19 11:33:21;;;;;;;;;;;1.50;99.90;;;;;;5066439;28;19928;-69
2022/12/19 11:35:49;;;;;;;;;;;1.60;99.90;;;;;;5065183;28;19987;-68
2022/12/19 11:38:17;;;;;;;;;;;1.70;99.90;;;;;;5064591;28;19944;-68
2022/12/19 11:40:45;;;;;;;;;;;1.80;99.90;;;;;;5065674;28;19985;-69
2022/12/19 11:43:13;;;;;;;;;;;1.80;99.90;;;;;;5065874;28;20267;-68
2022/12/19 11:45:48;;;;;;;;;;;1.90;99.90;;;;;;5064807;28;19963;-68
2022/12/19 11:48:17;;;;;;;;;;;1.90;99.90;;;;;;5052618;28;19921;-69
2022/12/19 11:50:49;;;;;;;;;;;2.00;99.90;;;;;;5066412;28;19920;-68
2022/12/19 11:53:19;;;;;;;;;;;2.00;99.90;;;;;;5066254;28;19925;-68
2022/12/19 11:55:49;;;;;;;;;;;2.00;99.90;;;;;;5064699;28;20296;-68
2022/12/19 11:58:16;;;;;;;;;;;2.00;99.90;;;;;;5064455;28;19921;-68
2022/12/19 12:00:49;;;;;;;;;;;2.00;99.90;;;;;;5065763;28;19952;-68
2022/12/19 12:03:40;;;;;;;;;;;2.00;99.90;;;;;;5066112;28;19984;-68
2022/12/19 12:06:10;;;;;;;;;;;2.00;99.90;;;;;;5064622;28;19959;-68
2022/12/19 12:08:41;;;;;;;;;;;2.10;99.90;;;;;;5065622;28;19920;-68
2022/12/19 12:11:16;;;;;;;;;;;2.10;99.90;;;;;;5065787;28;19943;-68
2022/12/19 12:13:49;;;;;;;;;;;2.20;99.90;;;;;;5065926;28;20173;-68
2022/12/19 12:16:17;;;;;;;;;;;2.20;99.90;;;;;;5063637;28;19928;-68
2022/12/19 12:18:51;;;;;;;;;;;2.30;99.90;;;;;;5063549;28;19952;-68
2022/12/19 12:21:22;;;;;;;;;;;2.30;99.90;;;;;;5065154;28;20116;-68
2022/12/19 12:23:54;;;;;;;;;;;2.30;99.90;;;;;;5065371;28;19952;-68
2022/12/19 12:26:26;;;;;;;;;;;2.30;99.90;;;;;;5064142;28;20260;-68
2022/12/19 12:28:59;;;;;;;;;;;2.40;99.90;;;;;;5054882;28;19921;-68
2022/12/19 12:31:32;;;;;;;;;;;2.30;99.90;;;;;;5064500;28;19983;-69
2022/12/19 12:34:03;;;;;;;;;;;2.30;99.90;;;;;;5065554;28;20209;-68
2022/12/19 12:36:34;;;;;;;;;;;2.30;99.90;;;;;;5066287;28;19988;-68
2022/12/19 12:39:03;;;;;;;;;;;2.30;99.90;;;;;;5063974;28;19995;-69
2022/12/19 12:44:23;;;;;;;;;;;2.30;99.90;;;;;;5064511;28;19959;-68
2022/12/19 12:46:58;;;;;;;;;;;2.30;99.90;;;;;;5061572;28;19928;-68
2022/12/19 12:49:32;;;;;;;;;;;2.40;99.90;;;;;;5064152;28;19987;-68
2022/12/19 12:51:59;;;;;;;;;;;2.50;99.90;;;;;;5061942;28;19942;-70
2022/12/19 12:54:28;;;;;;;;;;;2.50;99.90;;;;;;5065391;28;19921;-68
2022/12/19 12:56:55;;;;;;;;;;;2.60;99.90;;;;;;5064943;28;19920;-69
2022/12/19 12:59:23;;;;;;;;;;;2.60;99.90;;;;;;5063071;28;19953;-70
2022/12/19 13:01:50;;;;;;;;;;;2.70;99.90;;;;;;5064000;28;19920;-69
2022/12/19 13:04:25;;;;;;;;;;;2.80;99.90;;;;;;5057166;28;19951;-69
2022/12/19 13:07:16;;;;;;;;;;;2.80;99.90;;;;;;5044863;28;19927;-68
2022/12/19 13:09:42;;;;;;;;;;;2.80;99.90;;;;;;5040356;28;19959;-68
2022/12/19 13:15:18;;;;;;;;;;;2.90;99.90;;;;;;5054203;28;19923;-68
2022/12/19 13:18:02;;;;;;;;;;;2.80;99.90;;;;;;5061958;28;19921;-69
2022/12/19 13:20:46;;;;;;;;;;;2.80;99.90;;;;;;5064484;28;19921;-68
2022/12/19 13:23:20;;;;;;;;;;;2.80;99.90;;;;;;5063139;28;20208;-68
2022/12/19 13:25:49;;;;;;;;;;;2.80;99.90;;;;;;5057834;28;19921;-69
2022/12/19 13:28:45;;;;;;;;;;;2.80;99.90;;;;;;5062524;28;19984;-68
2022/12/19 13:31:19;;;;;;;;;;;2.70;99.90;;;;;;5022836;28;19964;-68
2022/12/19 13:34:04;;;;;;;;;;;2.70;99.90;;;;;;5051044;28;19980;-70
2022/12/19 13:37:01;;;;;;;;;;;2.70;99.90;;;;;;5063639;28;19921;-68
2022/12/19 13:39:31;;;;;;;;;;;2.60;99.90;;;;;;5064044;28;19992;-68
2022/12/19 13:44:47;;;;;;;;;;;2.60;99.90;;;;;;5050475;28;20254;-68
2022/12/19 13:47:14;;;;;;;;;;;2.60;99.90;;;;;;5060712;28;19956;-68
2022/12/19 13:49:41;;;;;;;;;;;2.50;99.90;;;;;;5063048;28;19980;-68
2022/12/19 13:52:11;;;;;;;;;;;2.50;99.90;;;;;;5063544;28;19921;-67
2022/12/19 13:54:46;;;;;;;;;;;2.50;99.90;;;;;;5063840;28;20189;-69
2022/12/19 13:57:20;;;;;;;;;;;2.50;99.90;;;;;;5063556;28;19958;-68
2022/12/19 13:59:47;;;;;;;;;;;2.50;99.90;;;;;;5063819;28;19921;-68
2022/12/19 14:02:17;;;;;;;;;;;2.40;99.90;;;;;;5063186;28;20235;-68
2022/12/19 14:04:44;;;;;;;;;;;2.40;99.90;;;;;;5062970;28;20172;-67
2022/12/19 14:07:22;;;;;;;;;;;2.40;99.90;;;;;;5062624;28;19928;-69
2022/12/19 14:09:51;;;;;;;;;;;2.40;99.90;;;;;;5062738;28;19925;-69
2022/12/19 14:15:12;;;;;;;;;;;2.40;99.90;;;;;;5062442;28;19967;-68
2022/12/19 14:15:22;;;;;;;;;;;2.40;99.90;;;;;;5060963;28;19963;-69
2022/12/19 14:17:49;;;;;;;;;;;2.40;99.90;;;;;;5060821;28;19925;-69
2022/12/19 14:20:20;;;;;;;;;;;2.30;99.90;;;;;;5063224;28;20394;-69
2022/12/19 14:22:46;;;;;;;;;;;2.30;99.90;;;;;;5063272;28;19920;-69
2022/12/19 14:25:15;;;;;;;;;;;2.30;99.90;;;;;;5063209;28;19924;-71
2022/12/19 14:27:44;;;;;;;;;;;2.40;99.90;;;;;;5062722;28;19955;-71
2022/12/19 14:30:16;;;;;;;;;;;2.30;99.90;;;;;;5057139;28;20183;-69
2022/12/19 14:32:44;;;;;;;;;;;2.30;99.90;;;;;;5055820;28;19921;-71
2022/12/19 14:35:14;;;;;;;;;;;2.30;99.90;;;;;;5043381;28;19928;-69
2022/12/19 14:37:44;;;;;;;;;;;2.30;99.90;;;;;;5042297;28;19921;-70
2022/12/19 14:40:19;;;;;;;;;;;2.20;99.90;;;;;;5047733;28;19927;-69
2022/12/19 14:45:34;;;;;;;;;;;2.20;99.90;;;;;;5062100;28;19916;-69